createdAt,value
2022-11-30T00:02:40.437Z,94381.47
2022-11-30T00:07:43.015Z,94396.66
2022-11-30T00:12:45.309Z,94379.72
2022-11-30T00:17:47.752Z,94341.63
2022-11-30T00:22:53.193Z,94384.59
2022-11-30T00:27:55.344Z,94353.78
2022-11-30T00:32:59.414Z,94366.72
2022-11-30T00:38:03.299Z,94373.13
2022-11-30T00:43:05.303Z,94341.31
2022-11-30T00:48:07.159Z,94308.91
2022-11-30T00:53:09.081Z,94330.22
2022-11-30T00:58:11.461Z,94278.69
2022-11-30T01:03:15.723Z,94304.50
2022-11-30T01:08:17.640Z,94255.44
2022-11-30T01:13:19.741Z,94292.91
2022-11-30T01:18:21.654Z,94264.13
2022-11-30T01:23:23.641Z,94289.88
2022-11-30T01:28:25.812Z,94284.91
2022-11-30T01:33:27.759Z,94291.00
2022-11-30T01:38:38.068Z,94277.56
2022-11-30T01:43:50.841Z,94277.69
2022-11-30T01:49:00.529Z,94283.41
2022-11-30T01:54:04.325Z,94307.03
2022-11-30T01:59:06.349Z,94272.16
2022-11-30T02:04:18.357Z,94297.47
2022-11-30T02:09:21.870Z,94309.88
2022-11-30T02:14:36.423Z,94295.47
2022-11-30T02:20:16.492Z,94291.75
2022-11-30T02:25:26.806Z,94299.31
2022-11-30T02:30:30.684Z,94286.19
2022-11-30T02:35:35.569Z,94277.81
2022-11-30T02:40:37.558Z,94275.00
2022-11-30T02:45:48.881Z,94274.03
2022-11-30T02:50:54.928Z,94270.16
2022-11-30T02:55:56.886Z,94276.75
2022-11-30T03:00:58.691Z,94276.53
2022-11-30T03:06:00.607Z,94279.25
2022-11-30T03:11:03.858Z,94284.78
2022-11-30T03:16:10.172Z,94272.13
2022-11-30T03:21:12.884Z,94269.72
2022-11-30T03:26:14.793Z,94262.81
2022-11-30T03:31:16.734Z,94250.88
2022-11-30T03:36:18.686Z,94217.00
2022-11-30T03:41:20.709Z,94257.72
2022-11-30T03:53:34.023Z,94229.88
2022-11-30T03:58:36.291Z,94221.72
2022-11-30T04:03:39.442Z,94228.03
2022-11-30T04:08:42.077Z,94197.09
2022-11-30T04:13:44.086Z,94228.03
2022-11-30T04:18:46.072Z,94237.06
2022-11-30T04:23:47.914Z,94227.97
2022-11-30T04:28:49.897Z,94234.44
2022-11-30T04:33:55.044Z,94214.78
2022-11-30T04:38:56.869Z,94224.66
2022-11-30T04:43:58.676Z,94232.25
2022-11-30T04:49:09.888Z,94237.47
2022-11-30T04:54:11.733Z,94192.25
2022-11-30T04:59:13.734Z,94187.63
2022-11-30T05:04:18.461Z,94226.88
2022-11-30T05:09:20.422Z,94223.22
2022-11-30T05:14:22.461Z,94226.22
2022-11-30T05:19:24.490Z,94216.41
2022-11-30T05:24:26.452Z,94218.31
2022-11-30T05:29:28.352Z,94226.25
2022-11-30T05:34:30.209Z,94229.03
2022-11-30T05:39:32.090Z,94221.63
2022-11-30T05:44:33.939Z,94217.34
2022-11-30T05:49:35.746Z,94217.50
2022-11-30T05:54:37.627Z,94182.28
2022-11-30T05:59:39.490Z,94210.81
2022-11-30T06:04:41.397Z,94198.22
2022-11-30T06:09:43.303Z,94198.59
2022-11-30T06:14:45.375Z,94198.63
2022-11-30T06:19:47.609Z,94192.38
2022-11-30T06:24:49.590Z,94202.81
2022-11-30T06:29:51.577Z,94158.88
2022-11-30T06:34:55.678Z,94188.66
2022-11-30T06:40:06.443Z,94182.09
2022-11-30T06:45:09.743Z,94195.78
2022-11-30T06:50:14.132Z,94186.88
2022-11-30T06:55:17.714Z,94145.00
2022-11-30T07:00:19.881Z,94199.38
2022-11-30T07:05:44.605Z,94190.75
2022-11-30T07:10:47.580Z,94175.03
2022-11-30T07:15:49.486Z,94201.88
2022-11-30T07:20:51.436Z,94201.53
2022-11-30T07:26:12.224Z,94170.09
2022-11-30T07:31:25.529Z,94181.94
2022-11-30T07:36:27.975Z,94222.56
2022-11-30T07:41:29.999Z,94207.28
2022-11-30T07:46:33.777Z,94209.06
2022-11-30T07:51:37.604Z,94176.09
2022-11-30T07:56:39.917Z,94209.06
2022-11-30T08:01:42.035Z,94183.66
2022-11-30T08:06:43.957Z,94221.97
2022-11-30T08:11:45.807Z,94180.47
2022-11-30T08:23:59.188Z,94212.75
2022-11-30T08:29:01.997Z,94210.28
2022-11-30T08:34:07.304Z,94203.91
2022-11-30T08:39:09.226Z,94229.22
2022-11-30T08:44:11.254Z,94236.75
2022-11-30T08:49:21.523Z,94220.53
2022-11-30T08:54:26.474Z,94219.53
2022-11-30T08:59:31.437Z,94236.16
2022-11-30T09:04:33.309Z,94230.13
2022-11-30T09:09:36.037Z,94238.31
2022-11-30T09:14:38.033Z,94238.09
2022-11-30T09:19:41.706Z,94237.13
2022-11-30T09:24:44.742Z,94244.44
2022-11-30T09:29:47.154Z,94238.84
2022-11-30T09:34:50.750Z,94234.72
2022-11-30T09:40:24.962Z,94237.56
2022-11-30T09:45:30.841Z,94235.66
2022-11-30T09:50:38.562Z,94238.03
2022-11-30T09:55:42.998Z,94233.31
2022-11-30T10:00:44.999Z,94225.66
2022-11-30T10:05:59.882Z,94241.16
2022-11-30T10:11:35.692Z,94228.75
2022-11-30T10:17:09.343Z,94218.81
2022-11-30T10:22:41.647Z,94216.78
2022-11-30T10:27:53.445Z,94205.63
2022-11-30T10:32:57.775Z,94196.44
2022-11-30T10:38:03.008Z,94205.00
2022-11-30T10:43:28.162Z,94202.13
2022-11-30T10:48:43.882Z,94188.22
2022-11-30T10:53:45.847Z,94186.59
2022-11-30T10:58:55.707Z,94179.13
2022-11-30T11:04:24.764Z,94170.81
2022-11-30T11:09:38.868Z,94167.72
2022-11-30T11:15:23.769Z,94165.78
2022-11-30T11:20:34.586Z,94156.34
2022-11-30T11:25:37.536Z,94151.03
2022-11-30T11:30:39.502Z,94121.22
2022-11-30T11:35:47.058Z,94125.53
2022-11-30T11:41:06.441Z,94119.34
2022-11-30T11:46:13.389Z,94123.72
2022-11-30T11:51:38.619Z,94112.50
2022-11-30T11:56:40.508Z,94100.09
2022-11-30T12:01:49.461Z,94101.03
2022-11-30T12:06:53.427Z,94087.28
2022-11-30T12:11:55.492Z,94075.97
2022-11-30T12:17:19.150Z,94067.31
2022-11-30T12:22:47.689Z,94058.00
2022-11-30T12:27:58.273Z,94047.59
2022-11-30T12:33:25.164Z,94038.22
2022-11-30T12:39:00.849Z,94036.09
2022-11-30T12:44:11.854Z,94002.47
2022-11-30T12:50:00.642Z,94027.25
2022-11-30T12:55:23.817Z,94021.97
2022-11-30T13:00:32.393Z,94027.19
2022-11-30T13:05:38.489Z,94030.69
2022-11-30T13:10:43.297Z,94010.59
2022-11-30T13:15:46.993Z,93991.31
2022-11-30T13:21:06.370Z,93998.88
2022-11-30T13:26:32.584Z,93997.03
2022-11-30T13:31:46.660Z,93990.09
2022-11-30T13:36:48.645Z,93969.81
2022-11-30T13:42:02.862Z,93959.50
2022-11-30T13:47:07.193Z,93947.16
2022-11-30T13:52:22.518Z,93958.28
2022-11-30T13:57:25.395Z,93946.47
2022-11-30T14:02:43.032Z,93956.91
2022-11-30T14:07:52.243Z,93945.91
2022-11-30T14:13:02.275Z,93902.75
2022-11-30T14:18:10.203Z,93933.25
2022-11-30T14:23:18.084Z,93922.34
2022-11-30T14:28:32.159Z,93896.38
2022-11-30T14:33:45.768Z,93924.88
2022-11-30T14:38:47.830Z,93923.34
2022-11-30T14:44:10.711Z,93912.78
2022-11-30T14:49:18.136Z,93918.34
2022-11-30T14:54:26.022Z,93917.41
2022-11-30T14:59:51.301Z,93924.75
2022-11-30T15:04:55.018Z,93918.72
2022-11-30T15:10:07.403Z,93929.72
2022-11-30T15:15:21.178Z,93913.81
2022-11-30T15:20:37.066Z,93909.66
2022-11-30T15:25:42.183Z,93898.88
2022-11-30T15:30:45.591Z,93911.53
2022-11-30T15:36:15.855Z,93913.66
2022-11-30T15:41:23.086Z,93889.84
2022-11-30T15:46:40.002Z,93906.63
2022-11-30T15:52:16.356Z,93917.50
2022-11-30T15:57:19.413Z,93911.38
2022-11-30T16:02:32.989Z,93917.69
2022-11-30T16:07:37.749Z,93914.47
2022-11-30T16:12:39.845Z,93919.84
2022-11-30T16:17:41.700Z,93927.03
2022-11-30T16:22:45.305Z,93916.03
2022-11-30T16:27:48.236Z,93916.13
2022-11-30T16:32:51.035Z,93913.38
2022-11-30T16:37:53.079Z,93912.47
2022-11-30T16:42:55.200Z,93909.91
2022-11-30T16:47:57.151Z,93940.03
2022-11-30T16:52:59.041Z,93934.19
2022-11-30T16:58:01.939Z,93928.28
2022-11-30T17:03:16.875Z,93938.75
2022-11-30T17:08:18.846Z,93942.84
2022-11-30T17:13:21.766Z,93947.53
2022-11-30T17:18:23.986Z,93934.53
2022-11-30T17:23:27.440Z,93947.84
2022-11-30T17:28:29.458Z,93949.25
2022-11-30T17:33:35.741Z,93952.88
2022-11-30T17:38:37.759Z,93951.97
2022-11-30T17:43:39.749Z,93946.53
2022-11-30T17:48:42.333Z,93959.69
2022-11-30T17:53:44.557Z,93961.06
2022-11-30T17:58:49.192Z,93958.09
2022-11-30T18:03:51.363Z,93955.44
2022-11-30T18:08:53.588Z,93956.91
2022-11-30T18:13:57.081Z,93959.72
2022-11-30T18:18:59.722Z,93945.38
2022-11-30T18:24:01.692Z,93956.75
2022-11-30T18:29:10.290Z,93959.13
2022-11-30T18:34:12.241Z,93967.44
2022-11-30T18:39:14.194Z,93962.13
2022-11-30T18:44:16.166Z,93962.13
2022-11-30T18:49:20.959Z,93967.00
2022-11-30T18:54:23.885Z,93945.91
2022-11-30T18:59:26.028Z,93975.13
2022-11-30T19:04:27.866Z,93979.53
2022-11-30T19:09:30.071Z,93973.75
2022-11-30T19:14:32.180Z,93975.91
2022-11-30T19:19:34.139Z,93986.69
2022-11-30T19:24:36.329Z,93987.66
2022-11-30T19:29:39.521Z,93945.47
2022-11-30T19:34:41.405Z,93983.75
2022-11-30T19:39:43.260Z,93972.31
2022-11-30T19:44:45.265Z,93952.06
2022-11-30T19:49:47.812Z,93975.31
2022-11-30T19:54:49.956Z,93934.69
2022-11-30T19:59:51.955Z,93978.94
2022-11-30T20:04:53.879Z,93987.53
2022-11-30T20:09:55.907Z,93993.16
2022-11-30T20:14:58.015Z,93987.22
2022-11-30T20:20:00.890Z,93993.16
2022-11-30T20:25:03.087Z,93982.38
2022-11-30T20:30:05.677Z,94002.53
2022-11-30T20:35:08.028Z,93988.91
2022-11-30T20:40:10.593Z,93962.47
2022-11-30T20:45:12.552Z,94002.81
2022-11-30T20:50:14.536Z,93960.88
2022-11-30T20:55:16.594Z,94008.13
2022-11-30T21:00:19.052Z,94001.88
2022-11-30T21:05:22.190Z,94011.88
2022-11-30T21:10:24.208Z,94003.00
2022-11-30T21:15:26.215Z,93999.56
2022-11-30T21:20:28.720Z,94005.31
2022-11-30T21:25:30.732Z,94007.69
2022-11-30T21:30:32.854Z,94005.94
2022-11-30T21:35:34.663Z,93997.94
2022-11-30T21:40:36.520Z,94008.53
2022-11-30T21:45:38.412Z,94011.03
2022-11-30T21:50:43.420Z,94010.56
2022-11-30T21:55:45.302Z,94000.53
2022-11-30T22:00:55.228Z,94009.00
2022-11-30T22:06:08.390Z,93972.66
2022-11-30T22:11:13.047Z,94019.59
2022-11-30T22:16:17.307Z,94007.69
2022-11-30T22:21:24.210Z,94021.72
2022-11-30T22:26:31.082Z,94021.28
2022-11-30T22:31:38.859Z,93989.50
2022-11-30T22:36:42.645Z,94009.81
2022-11-30T22:41:48.689Z,94016.25
2022-11-30T22:46:55.245Z,94004.78
2022-11-30T22:51:58.657Z,94022.16
2022-11-30T22:57:01.728Z,94030.72
2022-11-30T23:02:03.637Z,93997.09
2022-11-30T23:07:05.435Z,94033.06
2022-11-30T23:12:07.334Z,93991.00
2022-11-30T23:17:09.248Z,94027.66
2022-11-30T23:22:13.427Z,94018.56
2022-11-30T23:27:15.367Z,94029.34
2022-11-30T23:32:18.488Z,94017.75
2022-11-30T23:37:20.363Z,94022.63
2022-11-30T23:42:22.319Z,93977.13
2022-11-30T23:47:24.259Z,94009.81
2022-11-30T23:52:26.184Z,94011.06
2022-11-30T23:57:28.080Z,93976.63
